Time;durP1;ratioP1;P1;durP2;ratioP2;P2;SDS_P1;SDS_P2;PMS_P1;PMS_P2;Temp;Humidity;BMP_temperature;BMP_pressure;BME280_temperature;BME280_humidity;BME280_pressure;Samples;Min_cycle;Max_cycle;Signal;HPM_P1;HPM_P2
2022/12/14 00:02:02;;;;;;;23.23;17.40;;;-6.70;87.50;;;;;;4989738;28;20503;-51
2022/12/14 00:04:29;;;;;;;24.00;18.00;;;-6.70;83.40;;;;;;4991160;28;20565;-51
2022/12/14 00:06:55;;;;;;;21.97;16.73;;;-6.80;84.90;;;;;;4988872;28;20565;-52
2022/12/14 00:09:23;;;;;;;22.90;16.80;;;-6.80;78.10;;;;;;4989412;28;21042;-52
2022/12/14 00:11:50;;;;;;;23.13;17.00;;;-6.80;77.40;;;;;;4995006;28;20574;-52
2022/12/14 00:14:16;;;;;;;24.23;16.87;;;-6.80;75.70;;;;;;4996780;28;20574;-52
2022/12/14 00:16:43;;;;;;;21.83;16.57;;;-6.80;77.50;;;;;;4990695;28;20571;-51
2022/12/14 00:19:11;;;;;;;21.43;17.03;;;-6.90;80.10;;;;;;4990896;28;20564;-52
2022/12/14 00:21:37;;;;;;;25.93;17.57;;;-7.00;82.80;;;;;;4991100;28;20551;-52
2022/12/14 00:24:04;;;;;;;23.90;17.40;;;-7.00;83.40;;;;;;4982839;28;20504;-51
2022/12/14 00:26:33;;;;;;;22.60;16.67;;;-7.00;87.60;;;;;;4991273;28;20520;-51
2022/12/14 00:29:01;;;;;;;20.77;15.60;;;-7.10;90.30;;;;;;4995827;28;20973;-56
2022/12/14 00:31:28;;;;;;;23.37;16.60;;;-7.10;89.30;;;;;;4998610;28;20460;-52
2022/12/14 00:33:55;;;;;;;23.57;16.77;;;-7.10;90.10;;;;;;4990611;28;20500;-51
2022/12/14 00:36:23;;;;;;;23.73;17.67;;;-7.10;89.30;;;;;;4985590;28;20512;-51
2022/12/14 00:38:49;;;;;;;23.87;18.00;;;-7.10;85.00;;;;;;4990331;28;20587;-51
2022/12/14 00:41:16;;;;;;;21.53;15.90;;;-7.10;90.00;;;;;;4990799;28;20464;-52
2022/12/14 00:43:43;;;;;;;22.40;18.00;;;-7.00;88.30;;;;;;4991246;28;20540;-51
2022/12/14 00:46:10;;;;;;;27.13;22.70;;;-7.00;89.90;;;;;;4986664;28;20531;-51
2022/12/14 00:48:37;;;;;;;25.50;21.10;;;-7.10;87.70;;;;;;4989550;28;20556;-52
2022/12/14 00:51:04;;;;;;;26.37;21.70;;;-7.10;85.80;;;;;;4990203;28;20974;-52
2022/12/14 00:53:31;;;;;;;26.60;21.10;;;-7.10;89.30;;;;;;4989730;28;20583;-51
2022/12/14 00:56:04;;;;;;;25.27;20.63;;;-7.10;91.20;;;;;;4990659;28;20568;-52
2022/12/14 00:58:30;;;;;;;23.40;18.33;;;-7.10;92.70;;;;;;4990265;28;20575;-52
2022/12/14 01:01:02;;;;;;;20.90;15.80;;;-7.10;89.90;;;;;;4989162;28;20548;-52
2022/12/14 01:03:29;;;;;;;22.53;15.20;;;-7.20;84.30;;;;;;4991552;28;20547;-52
2022/12/14 01:05:55;;;;;;;20.27;15.80;;;-7.10;76.80;;;;;;4989659;28;21090;-53
2022/12/14 01:08:22;;;;;;;19.47;15.80;;;-7.10;82.30;;;;;;4989230;28;20552;-52
2022/12/14 01:10:49;;;;;;;18.77;15.20;;;-7.10;87.40;;;;;;4991820;28;20556;-52
2022/12/14 01:13:16;;;;;;;19.03;15.83;;;-7.20;92.00;;;;;;4992764;28;20555;-52
2022/12/14 01:15:42;;;;;;;24.20;15.00;;;-7.20;94.80;;;;;;4993140;28;20519;-52
2022/12/14 01:18:10;;;;;;;22.43;16.00;;;-7.10;92.10;;;;;;4994962;28;21053;-52
2022/12/14 01:20:37;;;;;;;18.43;14.57;;;-7.10;93.20;;;;;;4992346;28;20558;-51
2022/12/14 01:23:03;;;;;;;19.80;15.40;;;-7.20;93.10;;;;;;4992914;28;20995;-52
2022/12/14 01:25:30;;;;;;;19.37;15.30;;;-7.10;92.90;;;;;;4992599;28;20543;-52
2022/12/14 01:27:56;;;;;;;18.30;13.67;;;-7.10;93.60;;;;;;4991848;28;20576;-51
2022/12/14 01:30:23;;;;;;;19.57;16.00;;;-7.20;91.50;;;;;;4996378;28;20492;-52
2022/12/14 01:32:49;;;;;;;20.97;15.37;;;-7.20;91.40;;;;;;4993257;28;20985;-51
2022/12/14 01:35:17;;;;;;;17.40;13.53;;;-7.20;94.40;;;;;;4993215;28;20555;-52
2022/12/14 01:37:44;;;;;;;20.03;15.17;;;-7.20;96.50;;;;;;4992054;28;20579;-52
2022/12/14 01:40:11;;;;;;;21.67;15.30;;;-7.20;95.20;;;;;;4993052;28;20556;-52
2022/12/14 01:42:37;;;;;;;20.23;15.20;;;-7.10;95.70;;;;;;4998891;28;20496;-52
2022/12/14 01:45:05;;;;;;;16.73;14.27;;;-7.10;94.50;;;;;;4992070;28;20461;-52
2022/12/14 01:47:41;;;;;;;20.57;16.20;;;-7.10;96.30;;;;;;4997159;28;20548;-52
2022/12/14 01:50:14;;;;;;;18.70;15.70;;;-7.10;93.20;;;;;;4987661;28;20571;-52
2022/12/14 01:52:45;;;;;;;21.20;16.70;;;-7.10;95.40;;;;;;4992451;28;20547;-52
2022/12/14 01:55:16;;;;;;;19.47;15.47;;;-7.10;96.40;;;;;;4992856;28;20539;-52
2022/12/14 01:57:48;;;;;;;18.50;14.67;;;-7.10;99.30;;;;;;4992457;28;20576;-51
2022/12/14 02:00:16;;;;;;;22.40;14.60;;;-7.20;95.50;;;;;;4993186;28;20555;-52
2022/12/14 02:02:48;;;;;;;23.53;15.90;;;-7.30;93.10;;;;;;4988178;28;20892;-51
2022/12/14 02:05:17;;;;;;;33.63;23.70;;;-7.20;90.60;;;;;;4993438;28;20457;-51
2022/12/14 02:07:46;;;;;;;43.60;29.37;;;-7.20;91.70;;;;;;4992889;28;20520;-51
2022/12/14 02:10:13;;;;;;;51.13;33.83;;;-7.20;92.40;;;;;;4991775;28;20468;-52
2022/12/14 02:12:42;;;;;;;60.27;37.10;;;-7.20;92.20;;;;;;4991976;28;20547;-52
2022/12/14 02:15:10;;;;;;;49.70;31.77;;;-7.20;91.00;;;;;;4995777;28;20461;-52
2022/12/14 02:17:36;;;;;;;45.13;31.23;;;-7.20;90.50;;;;;;4992301;28;20567;-52
2022/12/14 02:20:04;;;;;;;47.63;31.73;;;-7.10;81.30;;;;;;5000841;28;20893;-53
2022/12/14 02:23:23;;;;;;;35.40;25.80;;;-7.10;78.40;;;;;;4994547;28;20523;-52
2022/12/14 02:26:24;;;;;;;34.40;22.80;;;-7.00;78.10;;;;;;4992093;28;20590;-53
2022/12/14 02:29:25;;;;;;;31.83;22.70;;;-6.90;72.40;;;;;;4993043;28;21016;-52
2022/12/14 02:32:03;;;;;;;26.07;18.30;;;-6.80;63.30;;;;;;4988670;28;20916;-52
2022/12/14 02:34:41;;;;;;;24.53;17.20;;;-6.70;68.50;;;;;;4992362;28;20889;-51
2022/12/14 02:37:15;;;;;;;26.93;19.00;;;-6.60;61.00;;;;;;4986442;28;20512;-52
2022/12/14 02:39:52;;;;;;;22.73;17.63;;;-6.50;56.00;;;;;;4993444;28;20504;-52
2022/12/14 02:42:30;;;;;;;24.90;18.37;;;-6.40;55.60;;;;;;4993143;28;20523;-52
2022/12/14 02:45:07;;;;;;;20.60;16.43;;;-6.40;56.70;;;;;;4991229;28;21042;-52
2022/12/14 02:47:39;;;;;;;22.43;17.53;;;-6.40;58.00;;;;;;4988919;28;20571;-52
2022/12/14 02:50:13;;;;;;;23.83;18.30;;;-6.30;54.90;;;;;;4992597;28;20552;-51
2022/12/14 02:52:47;;;;;;;24.73;18.83;;;-6.30;55.20;;;;;;4992356;28;20877;-52
2022/12/14 02:55:18;;;;;;;24.67;17.83;;;-6.30;55.30;;;;;;4991264;28;20547;-51
2022/12/14 02:57:50;;;;;;;25.13;19.10;;;-6.30;56.00;;;;;;4988043;28;20519;-52
2022/12/14 03:00:18;;;;;;;22.10;18.57;;;-6.30;56.10;;;;;;4983220;28;20558;-52
2022/12/14 03:02:47;;;;;;;22.23;17.03;;;-6.30;56.40;;;;;;4997404;28;20974;-52
2022/12/14 03:05:13;;;;;;;22.80;18.50;;;-6.20;54.60;;;;;;4987519;28;20519;-52
2022/12/14 03:07:44;;;;;;;22.83;17.03;;;-6.20;55.60;;;;;;4989282;28;20508;-51
2022/12/14 03:10:21;;;;;;;21.43;16.87;;;-6.30;63.20;;;;;;4991291;28;20460;-53
2022/12/14 03:12:54;;;;;;;24.90;17.33;;;-6.20;60.60;;;;;;4987177;28;20493;-52
2022/12/14 03:15:24;;;;;;;24.27;18.80;;;-6.30;60.60;;;;;;4988784;28;20498;-52
2022/12/14 03:17:55;;;;;;;25.17;17.90;;;-6.30;62.10;;;;;;4993549;28;20574;-52
2022/12/14 03:20:24;;;;;;;22.67;18.50;;;-6.20;60.80;;;;;;4994917;28;20563;-52
2022/12/14 03:22:57;;;;;;;24.37;18.03;;;-6.30;62.70;;;;;;4992009;28;20468;-52
2022/12/14 03:25:29;;;;;;;21.73;16.63;;;-6.30;62.80;;;;;;4986453;28;20874;-52
2022/12/14 03:28:01;;;;;;;23.20;17.03;;;-6.30;59.10;;;;;;4991272;28;20485;-53
2022/12/14 03:30:31;;;;;;;22.07;17.53;;;-6.30;59.80;;;;;;4991176;28;21001;-52
2022/12/14 03:33:04;;;;;;;22.37;16.90;;;-6.20;59.70;;;;;;4991631;28;21245;-52
2022/12/14 03:35:34;;;;;;;21.10;16.67;;;-6.30;61.00;;;;;;4996547;28;20545;-52
2022/12/14 03:38:07;;;;;;;24.87;18.20;;;-6.20;59.60;;;;;;4990607;28;20495;-52
2022/12/14 03:40:37;;;;;;;22.80;16.80;;;-6.20;59.40;;;;;;4988032;28;20896;-52
2022/12/14 03:43:15;;;;;;;23.73;17.17;;;-6.20;59.00;;;;;;4983673;28;20493;-51
2022/12/14 03:45:47;;;;;;;27.20;18.93;;;-6.20;62.80;;;;;;4985616;28;20556;-52
2022/12/14 03:48:25;;;;;;;21.73;17.43;;;-6.20;63.70;;;;;;4989443;28;21060;-52
2022/12/14 03:50:56;;;;;;;22.03;17.40;;;-6.30;62.90;;;;;;4988098;28;20467;-52
2022/12/14 03:53:32;;;;;;;23.33;17.43;;;-6.30;64.60;;;;;;4990600;28;20492;-52
2022/12/14 03:56:04;;;;;;;30.17;17.70;;;-6.30;63.80;;;;;;4991412;28;20566;-51
2022/12/14 03:58:38;;;;;;;25.37;18.30;;;-6.40;69.10;;;;;;4989133;28;20523;-52
2022/12/14 04:01:12;;;;;;;24.20;17.33;;;-6.40;67.20;;;;;;4992038;28;20564;-52
2022/12/14 04:03:47;;;;;;;26.60;19.10;;;-6.40;66.40;;;;;;4988579;28;20915;-51
2022/12/14 04:06:23;;;;;;;22.77;17.40;;;-6.50;68.10;;;;;;4990737;28;20511;-52
2022/12/14 04:08:57;;;;;;;22.83;18.50;;;-6.50;66.90;;;;;;4987262;28;20551;-51
2022/12/14 04:19:56;;;;;;;23.37;18.13;;;-6.50;63.60;;;;;;4989462;28;20841;-52
2022/12/14 04:22:25;;;;;;;29.10;24.27;;;-6.50;64.90;;;;;;4988681;28;20548;-52
2022/12/14 04:27:46;;;;;;;23.43;18.00;;;-6.50;64.40;;;;;;4990860;28;20487;-51
2022/12/14 04:30:12;;;;;;;21.73;18.10;;;-6.50;64.60;;;;;;4990634;28;20488;-52
2022/12/14 04:32:43;;;;;;;22.23;17.37;;;-6.40;64.50;;;;;;4987028;28;20484;-51
2022/12/14 04:35:14;;;;;;;22.70;17.90;;;-6.40;65.80;;;;;;4988199;28;20559;-51
2022/12/14 04:37:44;;;;;;;22.40;17.27;;;-6.50;66.20;;;;;;4989419;28;20576;-52
2022/12/14 04:40:14;;;;;;;24.20;17.53;;;-6.50;65.80;;;;;;4990142;28;21073;-51
2022/12/14 04:42:45;;;;;;;22.40;16.37;;;-6.50;66.20;;;;;;4987289;28;20540;-51
2022/12/14 04:45:16;;;;;;;21.20;16.00;;;-6.40;63.00;;;;;;4993334;28;21000;-52
2022/12/14 04:47:51;;;;;;;23.40;18.20;;;-6.50;65.70;;;;;;4993844;28;20925;-52
2022/12/14 04:50:25;;;;;;;25.03;18.07;;;-6.50;67.80;;;;;;4991167;28;20484;-52
2022/12/14 04:52:58;;;;;;;24.47;17.77;;;-6.50;69.30;;;;;;4992854;28;21024;-52
2022/12/14 04:55:30;;;;;;;23.23;16.97;;;-6.50;65.90;;;;;;4992648;28;20523;-52
2022/12/14 04:58:02;;;;;;;24.00;18.37;;;-6.40;64.70;;;;;;4992263;28;20586;-52
2022/12/14 05:00:33;;;;;;;23.83;18.77;;;-6.40;68.90;;;;;;4993745;28;20579;-51
2022/12/14 05:03:16;;;;;;;23.50;17.70;;;-6.40;69.00;;;;;;5001029;28;22308;-51
2022/12/14 05:05:54;;;;;;;25.87;17.47;;;-6.40;69.30;;;;;;4989369;28;20555;-52
2022/12/14 05:08:30;;;;;;;22.30;16.80;;;-6.40;71.00;;;;;;4992178;28;20491;-53
2022/12/14 05:11:01;;;;;;;26.90;17.40;;;-6.40;72.00;;;;;;4994331;28;20546;-51
2022/12/14 05:13:35;;;;;;;23.83;17.93;;;-6.50;71.30;;;;;;4992782;28;20492;-51
2022/12/14 05:16:03;;;;;;;24.80;18.53;;;-6.50;72.10;;;;;;4992502;28;20519;-52
2022/12/14 05:18:33;;;;;;;22.70;17.03;;;-6.40;68.40;;;;;;4993884;28;20503;-51
2022/12/14 05:21:00;;;;;;;22.00;16.57;;;-6.50;69.80;;;;;;4991751;28;20507;-53
2022/12/14 05:23:26;;;;;;;20.43;16.83;;;-6.50;70.40;;;;;;4994181;28;20540;-51
2022/12/14 05:25:53;;;;;;;25.17;18.63;;;-6.50;71.70;;;;;;4992677;28;20508;-51
2022/12/14 05:28:20;;;;;;;23.97;17.80;;;-6.50;72.60;;;;;;4990291;28;21001;-52
2022/12/14 05:30:46;;;;;;;25.47;18.73;;;-6.60;74.00;;;;;;4990409;28;20986;-52
2022/12/14 05:33:17;;;;;;;23.10;15.80;;;-6.60;73.20;;;;;;4985507;28;20595;-52
2022/12/14 05:35:46;;;;;;;24.33;18.30;;;-6.60;72.00;;;;;;4990062;28;20544;-52
2022/12/14 05:38:12;;;;;;;22.77;17.70;;;-6.50;79.30;;;;;;4991582;28;20543;-52
2022/12/14 05:40:39;;;;;;;23.40;17.83;;;-6.60;80.70;;;;;;4993422;28;21034;-52
2022/12/14 05:43:06;;;;;;;24.03;18.77;;;-6.60;78.00;;;;;;4992765;28;20496;-52
2022/12/14 05:45:33;;;;;;;21.27;17.03;;;-6.70;77.90;;;;;;5012353;22;20939;-50
2022/12/14 05:47:59;;;;;;;22.80;17.33;;;-6.70;77.00;;;;;;5012788;28;20488;-49
2022/12/14 05:50:26;;;;;;;22.03;16.47;;;-6.70;73.00;;;;;;5010648;28;20825;-50
2022/12/14 05:52:55;;;;;;;22.93;17.00;;;-6.80;73.80;;;;;;5009245;28;20523;-50
2022/12/14 05:55:22;;;;;;;22.33;17.00;;;-6.80;72.40;;;;;;5014876;28;20488;-50
2022/12/14 05:57:48;;;;;;;21.17;17.27;;;-6.70;71.60;;;;;;5005997;28;20554;-50
2022/12/14 06:00:15;;;;;;;23.57;17.60;;;-6.80;75.00;;;;;;5011393;28;21075;-50
2022/12/14 06:02:42;;;;;;;26.90;17.33;;;-6.80;74.80;;;;;;5015209;28;20861;-49
2022/12/14 06:05:09;;;;;;;24.40;17.57;;;-6.90;74.80;;;;;;5011855;28;20581;-51
2022/12/14 06:07:35;;;;;;;21.03;16.90;;;-6.80;73.20;;;;;;5009493;28;20849;-51
2022/12/14 06:10:04;;;;;;;30.03;17.93;;;-6.80;73.80;;;;;;5013705;28;20464;-50
2022/12/14 06:12:30;;;;;;;24.90;17.70;;;-6.90;76.50;;;;;;5017631;28;20510;-51
2022/12/14 06:14:57;;;;;;;24.00;18.57;;;-6.80;74.80;;;;;;5008152;28;20585;-50
2022/12/14 06:17:23;;;;;;;23.60;18.10;;;-6.80;74.40;;;;;;5009774;28;20497;-50
2022/12/14 06:19:50;;;;;;;22.00;17.37;;;-6.90;76.70;;;;;;5010093;28;20492;-51
2022/12/14 06:22:17;;;;;;;21.47;16.33;;;-6.80;77.30;;;;;;5004705;28;20474;-52
2022/12/14 06:24:44;;;;;;;23.70;16.50;;;-6.90;76.40;;;;;;5016309;28;20969;-52
2022/12/14 06:27:12;;;;;;;22.37;16.20;;;-6.90;75.70;;;;;;5002132;28;20533;-52
2022/12/14 06:29:38;;;;;;;20.50;16.73;;;-6.90;77.50;;;;;;5005639;28;20572;-51
2022/12/14 06:32:05;;;;;;;20.90;16.77;;;-6.80;75.40;;;;;;5008068;28;20495;-51
2022/12/14 06:34:32;;;;;;;21.00;16.47;;;-6.80;76.10;;;;;;5009560;28;20502;-51
2022/12/14 06:36:58;;;;;;;21.33;17.60;;;-6.90;79.90;;;;;;5018116;28;20495;-52
2022/12/14 06:39:25;;;;;;;21.60;16.90;;;-6.90;81.10;;;;;;5007493;28;20508;-51
2022/12/14 06:41:52;;;;;;;25.67;16.70;;;-6.90;79.60;;;;;;5009545;28;20522;-51
2022/12/14 06:44:20;;;;;;;24.33;17.70;;;-6.90;78.50;;;;;;5011884;28;20466;-52
2022/12/14 06:46:47;;;;;;;19.80;15.77;;;-6.90;78.90;;;;;;5011563;28;20499;-52
2022/12/14 06:49:15;;;;;;;23.37;17.80;;;-6.90;76.70;;;;;;5013394;28;20494;-52
2022/12/14 06:51:42;;;;;;;21.70;16.67;;;-6.90;83.00;;;;;;5011667;28;20533;-51
2022/12/14 06:54:10;;;;;;;21.47;16.13;;;-6.90;80.80;;;;;;5011190;28;20503;-53
2022/12/14 06:56:38;;;;;;;25.20;17.77;;;-6.90;77.30;;;;;;5002669;28;20514;-52
2022/12/14 06:59:05;;;;;;;26.40;18.10;;;-6.90;77.70;;;;;;5010649;28;20460;-52
2022/12/14 07:01:33;;;;;;;27.80;22.10;;;-6.90;81.50;;;;;;5011452;28;20490;-52
2022/12/14 07:03:59;;;;;;;34.73;25.23;;;-7.00;83.80;;;;;;5011558;28;20957;-52
2022/12/14 07:06:28;;;;;;;30.37;22.33;;;-6.90;82.90;;;;;;5009593;28;20503;-52
2022/12/14 07:08:56;;;;;;;26.93;20.17;;;-7.00;82.00;;;;;;5011170;28;20476;-51
2022/12/14 07:11:24;;;;;;;31.27;23.57;;;-7.00;83.40;;;;;;5010361;28;20491;-51
2022/12/14 07:13:50;;;;;;;33.10;23.27;;;-7.00;81.10;;;;;;5011323;28;20475;-52
2022/12/14 07:16:19;;;;;;;25.50;19.90;;;-6.90;80.00;;;;;;5349052;22;20621;-58
2022/12/14 07:18:50;;;;;;;27.80;18.67;;;-7.00;82.80;;;;;;5036083;28;20454;-51
2022/12/14 07:21:18;;;;;;;18.77;15.60;;;-7.00;87.10;;;;;;5040083;28;20498;-52
2022/12/14 07:23:46;;;;;;;22.80;16.47;;;-7.10;86.70;;;;;;5032474;28;21011;-52
2022/12/14 07:26:17;;;;;;;20.80;16.60;;;-7.00;81.20;;;;;;5022470;28;20975;-52
2022/12/14 07:28:45;;;;;;;26.20;15.83;;;-7.00;78.60;;;;;;5018786;28;20517;-52
2022/12/14 07:31:13;;;;;;;23.20;15.93;;;-7.00;84.70;;;;;;5031915;28;20530;-56
2022/12/14 07:33:40;;;;;;;23.40;17.07;;;-7.00;82.40;;;;;;5029308;28;20518;-58
2022/12/14 07:36:10;;;;;;;20.13;16.03;;;-7.00;85.10;;;;;;5027496;28;20540;-59
2022/12/14 07:38:39;;;;;;;25.30;17.60;;;-6.90;83.90;;;;;;5038379;28;20458;-56
2022/12/14 07:41:08;;;;;;;21.63;16.80;;;-6.90;85.50;;;;;;5033800;28;20573;-56
2022/12/14 07:43:35;;;;;;;20.07;16.30;;;-6.90;84.20;;;;;;5025627;28;20459;-56
2022/12/14 07:46:02;;;;;;;23.33;16.47;;;-6.80;86.20;;;;;;5030700;28;21022;-57
2022/12/14 07:48:30;;;;;;;19.97;15.63;;;-6.80;86.90;;;;;;5028789;28;20919;-56
2022/12/14 07:51:01;;;;;;;23.03;16.50;;;-6.80;85.50;;;;;;5013881;28;20464;-56
2022/12/14 07:53:29;;;;;;;21.57;15.60;;;-6.80;86.80;;;;;;5019149;28;20462;-56
2022/12/14 07:55:55;;;;;;;21.50;16.27;;;-6.80;88.50;;;;;;5027688;28;20516;-55
2022/12/14 07:58:22;;;;;;;24.90;16.10;;;-6.80;87.80;;;;;;5026832;28;20483;-56
2022/12/14 08:00:49;;;;;;;23.10;17.13;;;-6.80;85.70;;;;;;5022660;28;20550;-56
2022/12/14 08:03:15;;;;;;;21.70;16.40;;;-6.80;86.70;;;;;;5028654;28;20494;-56
2022/12/14 08:05:42;;;;;;;19.60;15.23;;;-6.70;86.30;;;;;;5026174;28;20537;-56
2022/12/14 08:08:08;;;;;;;23.77;16.87;;;-6.70;85.50;;;;;;5031825;28;20501;-57
2022/12/14 08:10:36;;;;;;;22.90;16.33;;;-6.70;84.20;;;;;;5028930;28;20447;-56
2022/12/14 08:13:03;;;;;;;29.80;21.03;;;-6.70;88.80;;;;;;5019606;28;20629;-57
2022/12/14 08:15:29;;;;;;;39.30;25.80;;;-6.70;84.60;;;;;;5022087;28;20553;-57
2022/12/14 08:17:56;;;;;;;21.97;16.30;;;-6.60;82.90;;;;;;5023200;28;20577;-57
2022/12/14 08:20:22;;;;;;;25.33;19.03;;;-6.50;85.00;;;;;;5028915;28;20514;-56
2022/12/14 08:22:51;;;;;;;31.03;20.20;;;-6.40;83.10;;;;;;5023182;28;21030;-55
2022/12/14 08:25:17;;;;;;;24.27;18.03;;;-6.40;87.50;;;;;;5020893;28;20459;-57
2022/12/14 08:27:45;;;;;;;24.00;19.33;;;-6.30;84.00;;;;;;5021162;28;20498;-56
2022/12/14 08:30:12;;;;;;;24.00;18.37;;;-6.20;88.10;;;;;;5018386;28;20466;-56
2022/12/14 08:32:39;;;;;;;22.30;16.57;;;-6.10;91.20;;;;;;5020156;28;20455;-49
2022/12/14 08:35:06;;;;;;;23.00;16.43;;;-6.00;91.80;;;;;;5026502;28;20466;-50
2022/12/14 08:37:33;;;;;;;26.77;16.20;;;-5.90;95.30;;;;;;5025230;28;20489;-50
2022/12/14 08:40:00;;;;;;;21.23;16.40;;;-5.60;99.90;;;;;;5027281;28;20499;-50
2022/12/14 08:42:26;;;;;;;23.57;16.30;;;-5.20;99.90;;;;;;5034996;28;20463;-50
2022/12/14 08:44:54;;;;;;;23.73;16.27;;;-5.10;99.90;;;;;;5035114;28;20473;-50
2022/12/14 08:47:21;;;;;;;26.97;15.97;;;-5.20;99.90;;;;;;5032243;28;21072;-50
2022/12/14 08:49:47;;;;;;;18.13;15.27;;;-5.30;99.90;;;;;;5024667;28;20528;-50
2022/12/14 08:52:15;;;;;;;21.23;15.57;;;-5.30;99.90;;;;;;5018483;28;20474;-50
2022/12/14 08:54:41;;;;;;;19.23;15.20;;;-5.40;99.90;;;;;;5021034;28;20463;-50
2022/12/14 08:57:08;;;;;;;17.83;14.53;;;-5.00;99.90;;;;;;5020921;28;21043;-50
2022/12/14 08:59:35;;;;;;;18.03;14.87;;;-5.20;99.90;;;;;;5031038;28;20485;-51
2022/12/14 09:02:03;;;;;;;20.43;15.57;;;-5.10;99.90;;;;;;5025664;28;20466;-49
2022/12/14 09:04:29;;;;;;;18.37;14.80;;;-4.90;99.90;;;;;;5024267;28;20498;-50
2022/12/14 09:06:56;;;;;;;20.93;16.53;;;-4.60;99.90;;;;;;5018626;28;20482;-49
2022/12/14 09:09:22;;;;;;;21.03;15.73;;;-4.40;99.90;;;;;;5020523;28;20840;-49
2022/12/14 09:11:49;;;;;;;24.37;16.27;;;-4.40;99.90;;;;;;5022651;28;20522;-50
2022/12/14 09:14:16;;;;;;;21.07;16.10;;;-4.30;99.90;;;;;;5021290;28;20459;-50
2022/12/14 09:16:42;;;;;;;21.47;16.53;;;-4.50;99.90;;;;;;5016347;28;20589;-50
2022/12/14 09:19:12;;;;;;;17.00;13.70;;;-4.40;99.90;;;;;;5020544;28;20541;-50
2022/12/14 09:21:38;;;;;;;23.67;16.27;;;-4.60;99.90;;;;;;5019279;28;20550;-50
2022/12/14 09:24:05;;;;;;;19.57;15.63;;;-4.90;99.90;;;;;;5016591;28;20467;-50
2022/12/14 09:26:32;;;;;;;18.50;14.90;;;-4.70;99.90;;;;;;5021129;28;20579;-50
2022/12/14 09:28:59;;;;;;;21.97;17.37;;;-4.90;99.90;;;;;;5021354;28;20454;-50
2022/12/14 09:31:27;;;;;;;22.83;16.50;;;-4.60;99.90;;;;;;5023170;28;20482;-49
2022/12/14 09:33:55;;;;;;;21.30;16.50;;;-4.60;99.90;;;;;;5025295;28;20466;-49
2022/12/14 09:36:27;;;;;;;19.70;15.07;;;-4.50;99.90;;;;;;5023642;28;20486;-49
2022/12/14 09:38:56;;;;;;;22.20;16.10;;;-4.40;99.90;;;;;;5022379;28;20451;-49
2022/12/14 09:41:41;;;;;;;19.10;14.10;;;-4.30;99.90;;;;;;5027083;28;20568;-50
2022/12/14 09:44:14;;;;;;;22.20;15.63;;;-3.70;99.90;;;;;;5027422;28;20509;-49
2022/12/14 09:46:51;;;;;;;22.50;16.47;;;-3.10;99.90;;;;;;5029773;28;20481;-50
2022/12/14 09:49:26;;;;;;;19.43;15.90;;;-2.10;99.90;;;;;;5031322;28;20482;-50
2022/12/14 09:51:58;;;;;;;23.37;15.70;;;-1.30;99.90;;;;;;5030216;28;20490;-54
2022/12/14 09:54:28;;;;;;;24.70;16.63;;;-0.10;99.90;;;;;;5028320;28;20545;-50
2022/12/14 09:56:57;;;;;;;22.97;15.07;;;0.10;31.50;;;;;;5023849;28;20490;-50
2022/12/14 09:59:27;;;;;;;18.97;15.53;;;0.10;26.20;;;;;;5023896;28;20945;-50
2022/12/14 10:02:00;;;;;;;19.20;15.80;;;-0.80;99.90;;;;;;5029201;28;21051;-50
2022/12/14 10:04:44;;;;;;;17.63;14.43;;;-1.60;99.90;;;;;;5032169;28;20969;-49
2022/12/14 10:07:21;;;;;;;23.73;15.50;;;-1.90;99.90;;;;;;5034196;28;20552;-49
2022/12/14 10:09:52;;;;;;;21.50;15.90;;;-2.20;99.90;;;;;;5030980;28;20466;-50
2022/12/14 10:12:33;;;;;;;21.43;16.47;;;-2.50;99.90;;;;;;5014596;28;21033;-50
2022/12/14 10:15:14;;;;;;;18.27;15.20;;;-2.00;99.90;;;;;;5029149;28;21018;-50
2022/12/14 10:18:04;;;;;;;22.67;15.57;;;-2.20;99.90;;;;;;5020719;28;20526;-50
2022/12/14 10:20:41;;;;;;;16.53;14.77;;;-2.20;99.90;;;;;;5027214;28;20482;-50
2022/12/14 10:23:13;;;;;;;19.97;16.07;;;-2.10;99.90;;;;;;5029085;28;20515;-50
2022/12/14 10:25:42;;;;;;;19.43;16.03;;;-2.40;99.90;;;;;;5028366;28;20499;-50
2022/12/14 10:28:23;;;;;;;22.87;18.00;;;-2.70;99.90;;;;;;5016553;28;20585;-50
2022/12/14 10:30:54;;;;;;;21.70;14.73;;;-2.80;99.90;;;;;;5009676;28;20987;-50
2022/12/14 10:33:24;;;;;;;23.43;15.67;;;-2.40;99.90;;;;;;5013467;28;20491;-50
2022/12/14 10:35:52;;;;;;;20.87;15.53;;;-2.60;99.90;;;;;;5012245;28;22679;-51
2022/12/14 10:38:26;;;;;;;21.97;16.20;;;-2.70;99.90;;;;;;5015770;28;20513;-50
2022/12/14 10:40:57;;;;;;;22.73;15.30;;;-2.80;99.90;;;;;;5009483;28;20475;-50
2022/12/14 10:43:38;;;;;;;24.70;15.60;;;-2.90;99.90;;;;;;5009357;28;21055;-50
2022/12/14 10:46:13;;;;;;;17.30;13.70;;;-2.60;99.90;;;;;;5021944;28;20468;-50
2022/12/14 10:48:47;;;;;;;17.30;14.70;;;-2.10;99.90;;;;;;5024243;28;20545;-50
2022/12/14 10:51:19;;;;;;;18.90;14.63;;;-2.00;99.90;;;;;;5021186;28;20508;-50
2022/12/14 10:53:51;;;;;;;22.97;15.93;;;-1.70;99.90;;;;;;5016455;28;20466;-50
2022/12/14 10:56:21;;;;;;;25.57;14.53;;;-1.60;99.90;;;;;;5026128;28;20519;-50
2022/12/14 10:59:27;;;;;;;18.37;14.90;;;-2.00;99.90;;;;;;5024647;28;20496;-54
2022/12/14 11:02:00;;;;;;;21.43;14.30;;;-1.70;99.90;;;;;;5000538;28;20561;-54
2022/12/14 11:04:33;;;;;;;18.30;14.87;;;-1.60;99.90;;;;;;5027459;28;20494;-50
2022/12/14 11:07:03;;;;;;;18.23;14.33;;;-1.70;99.90;;;;;;5028496;28;20514;-50
2022/12/14 11:09:32;;;;;;;26.97;17.40;;;-0.90;99.90;;;;;;5028446;28;20484;-50
2022/12/14 11:12:01;;;;;;;29.43;18.73;;;-1.20;99.90;;;;;;5030222;28;20486;-49
2022/12/14 11:14:28;;;;;;;19.53;14.13;;;-1.00;99.90;;;;;;5023758;28;20505;-50
2022/12/14 11:16:55;;;;;;;18.90;15.73;;;-0.50;99.90;;;;;;5018207;28;20585;-50
2022/12/14 11:19:23;;;;;;;20.37;15.97;;;-0.90;99.90;;;;;;5010627;28;20600;-50
2022/12/14 11:21:51;;;;;;;20.00;14.20;;;-1.20;99.90;;;;;;5018714;28;20667;-50
2022/12/14 11:24:23;;;;;;;19.23;14.90;;;-1.20;99.90;;;;;;5018846;28;20490;-49
2022/12/14 11:26:53;;;;;;;20.60;16.63;;;-1.50;99.90;;;;;;5025023;28;20565;-50
2022/12/14 11:29:26;;;;;;;19.73;14.40;;;-1.40;99.90;;;;;;5025059;28;20481;-50
2022/12/14 11:31:54;;;;;;;22.27;15.27;;;-1.60;99.90;;;;;;5027560;28;20465;-50
2022/12/14 11:34:28;;;;;;;21.10;13.93;;;-1.60;99.90;;;;;;5009245;28;20466;-50
2022/12/14 11:36:54;;;;;;;21.23;15.43;;;-1.50;99.90;;;;;;5012420;28;20631;-51
2022/12/14 11:39:23;;;;;;;19.17;14.80;;;-1.60;99.90;;;;;;5019785;28;20463;-50
2022/12/14 11:41:59;;;;;;;15.77;13.00;;;-1.70;99.90;;;;;;5021323;28;20483;-50
2022/12/14 11:44:27;;;;;;;23.10;14.60;;;-1.60;99.90;;;;;;5016985;28;20458;-51
2022/12/14 11:47:00;;;;;;;20.13;15.53;;;-1.60;99.90;;;;;;5022818;28;20521;-50
2022/12/14 11:49:33;;;;;;;20.07;15.00;;;-1.60;99.90;;;;;;5021258;28;20502;-50
2022/12/14 11:52:04;;;;;;;19.23;15.10;;;-1.80;99.90;;;;;;5029167;28;20474;-51
2022/12/14 11:54:31;;;;;;;18.37;15.03;;;-1.90;99.90;;;;;;5023622;28;20504;-50
2022/12/14 11:57:03;;;;;;;19.03;14.47;;;-2.10;99.90;;;;;;5028933;28;20533;-50
2022/12/14 11:59:38;;;;;;;20.03;15.10;;;-2.10;99.90;;;;;;5028948;28;21070;-50
2022/12/14 12:02:22;;;;;;;19.83;15.23;;;-2.00;99.90;;;;;;5028686;28;20502;-51
2022/12/14 12:04:53;;;;;;;25.17;18.33;;;-2.00;99.90;;;;;;5020827;28;20470;-49
2022/12/14 12:07:31;;;;;;;18.47;14.27;;;-1.90;99.90;;;;;;5028626;28;20482;-51
2022/12/14 12:10:05;;;;;;;21.40;15.77;;;-1.80;99.90;;;;;;5028805;28;21178;-50
2022/12/14 12:12:33;;;;;;;20.90;14.60;;;-1.60;99.90;;;;;;5029245;28;20486;-49
2022/12/14 12:15:00;;;;;;;21.37;16.60;;;-1.60;99.90;;;;;;5027009;28;20578;-49
2022/12/14 12:17:39;;;;;;;23.50;17.40;;;-1.70;99.90;;;;;;5028168;28;20526;-49
2022/12/14 12:20:23;;;;;;;19.07;14.63;;;-1.90;99.90;;;;;;5030423;28;20497;-49
2022/12/14 12:22:55;;;;;;;15.83;14.13;;;-1.80;99.90;;;;;;5028792;28;20521;-50
2022/12/14 12:25:23;;;;;;;17.53;14.83;;;-1.50;99.90;;;;;;5028013;28;20499;-49
2022/12/14 12:28:00;;;;;;;24.50;15.33;;;-1.40;99.90;;;;;;5026100;28;20560;-50
2022/12/14 12:30:31;;;;;;;19.87;13.70;;;-1.30;99.90;;;;;;5021102;28;20476;-49
2022/12/14 12:33:05;;;;;;;26.00;13.93;;;-1.30;99.90;;;;;;5029057;28;22327;-49
2022/12/14 12:35:37;;;;;;;19.73;15.13;;;-0.90;99.90;;;;;;5023560;28;21038;-50
2022/12/14 12:38:12;;;;;;;23.40;14.57;;;-0.60;99.90;;;;;;5027566;28;20482;-50
2022/12/14 12:40:54;;;;;;;20.67;14.93;;;0.00;99.90;;;;;;5014130;28;20498;-50
2022/12/14 12:43:27;;;;;;;18.40;14.77;;;0.00;99.90;;;;;;5020060;28;22577;-51
2022/12/14 12:45:58;;;;;;;23.40;15.20;;;-0.10;99.90;;;;;;5025179;28;20494;-51
2022/12/14 12:48:28;;;;;;;22.10;15.87;;;-0.90;99.90;;;;;;5024943;28;21011;-50
2022/12/14 12:50:59;;;;;;;18.20;14.20;;;-0.80;99.90;;;;;;5023251;28;20550;-50
2022/12/14 12:53:30;;;;;;;20.90;15.17;;;-1.10;99.90;;;;;;5022738;28;20545;-50
2022/12/14 12:56:05;;;;;;;23.53;13.73;;;-1.10;99.90;;;;;;5024681;28;20489;-50